createdAt,value
2018-11-28T00:01:52.975Z,13.17
2018-11-28T00:04:21.092Z,11.37
2018-11-28T00:06:49.227Z,14.57
2018-11-28T00:09:17.386Z,15.80
2018-11-28T00:11:45.549Z,17.07
2018-11-28T00:14:13.712Z,16.10
2018-11-28T00:16:41.998Z,12.90
2018-11-28T00:19:10.093Z,17.13
2018-11-28T00:21:38.208Z,12.77
2018-11-28T00:24:06.346Z,17.40
2018-11-28T00:26:34.487Z,17.10
2018-11-28T00:29:02.725Z,17.50
2018-11-28T00:31:30.867Z,17.30
2018-11-28T00:33:58.978Z,16.77
2018-11-28T00:36:27.165Z,16.40
2018-11-28T00:38:55.292Z,14.20
2018-11-28T00:41:23.409Z,12.43
2018-11-28T00:43:51.600Z,16.70
2018-11-28T00:46:19.733Z,15.87
2018-11-28T00:48:47.847Z,13.03
2018-11-28T00:51:15.932Z,15.50
2018-11-28T00:53:44.070Z,14.10
2018-11-28T00:56:12.338Z,15.97
2018-11-28T00:58:40.483Z,14.10
2018-11-28T01:01:08.632Z,14.70
2018-11-28T01:03:36.849Z,19.03
2018-11-28T01:06:05.036Z,17.27
2018-11-28T01:08:33.167Z,17.20
2018-11-28T01:11:01.333Z,11.03
2018-11-28T01:13:29.409Z,16.33
2018-11-28T01:15:57.564Z,12.07
2018-11-28T01:18:25.667Z,17.53
2018-11-28T01:20:53.837Z,17.77
2018-11-28T01:23:22.041Z,17.40
2018-11-28T01:25:50.181Z,18.50
2018-11-28T01:28:18.296Z,17.00
2018-11-28T01:30:46.432Z,18.00
2018-11-28T01:33:14.556Z,18.77
2018-11-28T01:35:42.667Z,17.73
2018-11-28T01:38:10.817Z,16.50
2018-11-28T01:40:38.937Z,17.80
2018-11-28T01:43:07.282Z,19.60
2018-11-28T01:45:35.371Z,17.73
2018-11-28T01:48:03.890Z,18.57
2018-11-28T01:50:31.994Z,16.63
2018-11-28T01:53:00.091Z,16.03
2018-11-28T01:55:28.349Z,19.67
2018-11-28T01:57:56.582Z,19.87
2018-11-28T02:00:24.995Z,19.93
2018-11-28T02:03:02.057Z,19.27
2018-11-28T02:05:30.149Z,20.87
2018-11-28T02:07:58.462Z,14.70
2018-11-28T02:10:26.588Z,17.07
2018-11-28T02:12:55.064Z,19.57
2018-11-28T02:15:23.730Z,19.87
2018-11-28T02:17:52.016Z,17.90
2018-11-28T02:20:20.264Z,17.60
2018-11-28T02:22:48.438Z,16.63
2018-11-28T02:25:17.458Z,16.97
2018-11-28T02:27:46.394Z,18.63
2018-11-28T02:30:16.584Z,19.83
2018-11-28T02:32:45.338Z,18.07
2018-11-28T02:35:14.554Z,11.33
2018-11-28T02:37:43.032Z,17.70
2018-11-28T02:40:13.237Z,16.67
2018-11-28T02:42:41.566Z,18.60
2018-11-28T02:45:15.014Z,17.70
2018-11-28T02:47:43.297Z,13.13
2018-11-28T02:50:11.488Z,17.03
2018-11-28T02:52:39.642Z,15.90
2018-11-28T02:55:09.918Z,18.43
2018-11-28T02:57:38.414Z,15.83
2018-11-28T03:00:18.347Z,18.93
2018-11-28T03:02:46.556Z,18.90
2018-11-28T03:05:14.918Z,15.47
2018-11-28T03:07:43.172Z,16.30
2018-11-28T03:10:12.991Z,15.27
2018-11-28T03:12:41.372Z,15.27
2018-11-28T03:15:17.459Z,16.93
2018-11-28T03:17:45.628Z,17.83
2018-11-28T03:20:13.720Z,18.90
2018-11-28T03:22:41.990Z,18.07
2018-11-28T03:25:10.788Z,17.53
2018-11-28T03:27:38.890Z,18.07
2018-11-28T03:30:11.141Z,18.20
2018-11-28T03:32:39.295Z,17.07
2018-11-28T03:35:09.208Z,17.83
2018-11-28T03:37:37.347Z,14.03
2018-11-28T03:40:06.020Z,16.57
2018-11-28T03:42:34.402Z,14.63
2018-11-28T03:45:02.970Z,13.87
2018-11-28T03:47:31.109Z,18.60
2018-11-28T03:49:59.193Z,12.00
2018-11-28T03:52:27.322Z,16.67
2018-11-28T03:54:55.426Z,16.83
2018-11-28T03:57:23.772Z,12.93
2018-11-28T03:59:51.912Z,16.50
2018-11-28T04:02:20.050Z,15.17
2018-11-28T04:04:48.192Z,16.27
2018-11-28T04:07:16.459Z,14.27
2018-11-28T04:09:44.554Z,17.23
2018-11-28T04:12:12.788Z,13.43
2018-11-28T04:14:40.974Z,17.43
2018-11-28T04:17:09.131Z,18.13
2018-11-28T04:19:37.265Z,18.60
2018-11-28T04:22:05.954Z,17.73
2018-11-28T04:24:34.056Z,15.87
2018-11-28T04:27:02.177Z,19.10
2018-11-28T04:29:30.289Z,16.10
2018-11-28T04:31:58.489Z,13.60
2018-11-28T04:34:26.660Z,15.30
2018-11-28T04:36:54.735Z,13.60
2018-11-28T04:39:22.929Z,18.20
2018-11-28T04:41:51.042Z,16.20
2018-11-28T04:44:19.178Z,16.77
2018-11-28T04:46:47.322Z,18.80
2018-11-28T04:49:15.417Z,14.03
2018-11-28T04:51:43.517Z,16.23
2018-11-28T04:54:11.735Z,18.03
2018-11-28T04:56:39.845Z,17.33
2018-11-28T04:59:08.090Z,17.90
2018-11-28T05:01:36.207Z,17.23
2018-11-28T05:04:04.641Z,16.93
2018-11-28T05:07:40.303Z,13.10
2018-11-28T05:10:09.734Z,16.53
2018-11-28T05:12:37.863Z,14.67
2018-11-28T05:16:38.523Z,14.97
2018-11-28T05:19:06.630Z,18.93
2018-11-28T05:21:34.813Z,15.47
2018-11-28T05:24:02.926Z,19.63
2018-11-28T05:26:31.108Z,12.60
2018-11-28T05:28:59.241Z,19.00
2018-11-28T05:31:27.410Z,15.83
2018-11-28T05:33:55.650Z,17.37
2018-11-28T05:36:23.819Z,17.77
2018-11-28T05:38:51.990Z,16.67
2018-11-28T05:41:20.080Z,17.20
2018-11-28T05:43:48.265Z,17.30
2018-11-28T05:46:16.390Z,15.63
2018-11-28T05:48:44.647Z,20.80
2018-11-28T05:51:12.853Z,17.73
2018-11-28T05:53:41.126Z,12.70
2018-11-28T05:56:09.950Z,19.73
2018-11-28T05:58:38.148Z,18.13
2018-11-28T06:01:06.449Z,15.47
2018-11-28T06:03:35.099Z,19.37
2018-11-28T06:06:03.248Z,17.03
2018-11-28T06:08:31.529Z,18.77
2018-11-28T06:10:59.603Z,16.37
2018-11-28T06:13:27.939Z,13.87
2018-11-28T06:15:56.187Z,15.93
2018-11-28T06:18:24.596Z,17.43
2018-11-28T06:20:52.829Z,19.47
2018-11-28T06:23:20.996Z,19.07
2018-11-28T06:25:49.243Z,17.63
2018-11-28T06:28:17.456Z,14.03
2018-11-28T06:30:45.891Z,14.33
2018-11-28T06:33:14.118Z,13.63
2018-11-28T06:35:42.372Z,17.23
2018-11-28T06:38:10.716Z,15.93
2018-11-28T06:40:38.826Z,16.60
2018-11-28T06:43:07.071Z,21.33
2018-11-28T06:45:35.432Z,13.27
2018-11-28T06:48:03.750Z,13.90
2018-11-28T06:50:31.860Z,18.40
2018-11-28T06:53:01.125Z,18.03
2018-11-28T06:55:29.297Z,17.23
2018-11-28T06:57:57.419Z,18.37
2018-11-28T07:00:25.533Z,20.97
2018-11-28T07:02:53.891Z,17.40
2018-11-28T07:05:22.555Z,21.83
2018-11-28T07:07:51.395Z,17.07
2018-11-28T07:10:20.561Z,20.57
2018-11-28T07:12:48.751Z,18.00
2018-11-28T07:15:18.271Z,15.83
2018-11-28T07:17:46.372Z,15.37
2018-11-28T07:20:15.421Z,16.80
2018-11-28T07:22:43.522Z,19.80
2018-11-28T07:25:15.580Z,17.60
2018-11-28T07:27:45.397Z,17.70
2018-11-28T07:30:15.011Z,16.33
2018-11-28T07:32:43.341Z,16.60
2018-11-28T07:35:12.240Z,16.50
2018-11-28T07:37:40.397Z,15.90
2018-11-28T07:40:14.631Z,14.60
2018-11-28T07:42:45.674Z,15.70
2018-11-28T07:45:13.827Z,17.57
2018-11-28T07:47:42.038Z,14.00
2018-11-28T07:50:10.369Z,15.43
2018-11-28T07:52:38.557Z,16.83
2018-11-28T07:55:08.975Z,18.17
2018-11-28T07:57:37.119Z,13.00
2018-11-28T08:00:09.623Z,14.37
2018-11-28T08:02:37.755Z,20.30
2018-11-28T08:05:07.003Z,17.07
2018-11-28T08:07:35.163Z,16.13
2018-11-28T08:10:03.362Z,17.00
2018-11-28T08:12:31.477Z,17.77
2018-11-28T08:14:59.582Z,17.07
2018-11-28T08:17:27.718Z,14.47
2018-11-28T08:19:55.815Z,16.67
2018-11-28T08:22:23.925Z,19.00
2018-11-28T08:24:52.037Z,13.97
2018-11-28T08:27:20.211Z,17.03
2018-11-28T08:29:48.316Z,16.80
2018-11-28T08:32:16.511Z,19.53
2018-11-28T08:34:44.653Z,17.63
2018-11-28T08:37:12.818Z,16.90
2018-11-28T08:39:41.003Z,20.57
2018-11-28T08:42:09.075Z,19.40
2018-11-28T08:44:37.191Z,14.30
2018-11-28T08:47:05.635Z,17.93
2018-11-28T08:49:33.752Z,17.40
2018-11-28T08:52:01.889Z,15.33
2018-11-28T08:54:30.043Z,16.17
2018-11-28T08:56:59.385Z,18.50
2018-11-28T08:59:26.489Z,15.90
2018-11-28T09:01:55.538Z,15.23
2018-11-28T09:04:23.719Z,14.57
2018-11-28T09:06:51.839Z,19.00
2018-11-28T09:09:20.930Z,15.40
2018-11-28T09:11:49.178Z,20.53
2018-11-28T09:14:17.305Z,19.73
2018-11-28T09:16:45.515Z,16.43
2018-11-28T09:19:13.635Z,20.47
2018-11-28T09:21:41.838Z,14.50
2018-11-28T09:24:10.031Z,18.40
2018-11-28T09:26:38.131Z,20.17
2018-11-28T09:29:06.345Z,17.03
2018-11-28T09:31:34.574Z,17.47
2018-11-28T09:34:02.987Z,17.07
2018-11-28T09:36:31.095Z,14.87
2018-11-28T09:38:59.263Z,16.17
2018-11-28T09:41:27.403Z,19.00
2018-11-28T09:43:55.471Z,21.43
2018-11-28T09:46:23.596Z,14.33
2018-11-28T09:48:51.720Z,19.03
2018-11-28T09:51:19.871Z,16.70
2018-11-28T09:53:48.000Z,16.33
2018-11-28T09:56:16.140Z,14.77
2018-11-28T09:58:44.264Z,17.47
2018-11-28T10:01:12.415Z,16.30
2018-11-28T10:03:40.581Z,17.60
2018-11-28T10:06:08.832Z,19.53
2018-11-28T10:08:37.089Z,15.63
2018-11-28T10:11:05.459Z,16.33
2018-11-28T10:13:33.588Z,16.93
2018-11-28T10:16:01.936Z,19.27
2018-11-28T10:18:30.413Z,18.60
2018-11-28T10:20:58.567Z,18.07
2018-11-28T10:23:26.714Z,17.03
2018-11-28T10:25:54.841Z,16.83
2018-11-28T10:28:22.929Z,20.83
2018-11-28T10:30:51.021Z,18.13
2018-11-28T10:33:19.131Z,19.50
2018-11-28T10:35:47.264Z,28.77
2018-11-28T10:38:15.376Z,18.30
2018-11-28T10:40:43.480Z,18.63
2018-11-28T10:43:11.653Z,16.20
2018-11-28T10:45:39.869Z,17.83
2018-11-28T10:48:10.473Z,15.47
2018-11-28T10:50:38.606Z,16.77
2018-11-28T10:53:07.052Z,16.03
2018-11-28T10:55:35.189Z,17.70
2018-11-28T10:58:03.812Z,18.87
2018-11-28T11:00:31.909Z,14.50
2018-11-28T11:03:00.254Z,18.50
2018-11-28T11:05:28.437Z,18.53
2018-11-28T11:07:56.599Z,14.17
2018-11-28T11:10:24.803Z,19.03
2018-11-28T11:12:52.914Z,15.27
2018-11-28T11:15:21.082Z,14.97
2018-11-28T11:17:49.303Z,20.73
2018-11-28T11:20:17.409Z,14.10
2018-11-28T11:22:45.612Z,14.37
2018-11-28T11:25:13.744Z,16.97
2018-11-28T11:27:41.927Z,15.27
2018-11-28T11:30:10.438Z,17.27
2018-11-28T11:32:38.641Z,19.87
2018-11-28T11:35:08.231Z,19.73
2018-11-28T11:37:36.430Z,19.63
2018-11-28T11:40:08.286Z,14.30
2018-11-28T11:42:36.478Z,12.60
2018-11-28T11:45:05.870Z,17.97
2018-11-28T11:47:33.955Z,14.90
2018-11-28T11:50:02.176Z,14.03
2018-11-28T11:52:30.364Z,13.13
2018-11-28T11:54:58.467Z,14.00
2018-11-28T11:57:26.703Z,17.17
2018-11-28T11:59:54.856Z,14.90
2018-11-28T12:02:23.065Z,17.50
2018-11-28T12:04:51.187Z,13.10
2018-11-28T12:07:19.308Z,16.77
2018-11-28T12:09:47.457Z,16.20
2018-11-28T12:12:15.618Z,11.43
2018-11-28T12:14:43.781Z,12.20
2018-11-28T12:17:11.898Z,11.47
2018-11-28T12:19:40.073Z,11.77
2018-11-28T12:22:08.286Z,13.00
2018-11-28T12:24:36.431Z,12.10
2018-11-28T12:27:05.088Z,13.43
2018-11-28T12:29:33.228Z,12.20
2018-11-28T12:32:01.402Z,12.37
2018-11-28T12:34:29.612Z,12.27
2018-11-28T12:36:57.763Z,14.93
2018-11-28T12:39:25.832Z,13.20
2018-11-28T12:41:53.954Z,11.30
2018-11-28T12:44:22.037Z,11.80
2018-11-28T12:46:50.511Z,12.57
2018-11-28T12:49:19.002Z,10.70
2018-11-28T12:51:53.790Z,12.53
2018-11-28T12:54:21.925Z,13.53
2018-11-28T12:56:50.049Z,14.43
2018-11-28T12:59:18.198Z,11.83
2018-11-28T13:01:46.309Z,10.00
2018-11-28T13:04:14.559Z,12.50
2018-11-28T13:06:43.306Z,11.17
2018-11-28T13:09:11.584Z,9.77
2018-11-28T13:11:40.900Z,10.70
2018-11-28T13:14:09.425Z,11.50
2018-11-28T13:16:37.742Z,10.30
2018-11-28T13:19:06.054Z,10.97
2018-11-28T13:21:34.277Z,13.03
2018-11-28T13:24:02.468Z,10.93
2018-11-28T13:26:30.586Z,11.50
2018-11-28T13:28:58.728Z,10.60
2018-11-28T13:31:26.856Z,10.33
2018-11-28T13:33:54.980Z,12.10
2018-11-28T13:36:23.156Z,12.57
2018-11-28T13:38:51.418Z,13.00
2018-11-28T13:41:19.570Z,9.93
2018-11-28T13:43:47.720Z,11.13
2018-11-28T13:46:15.952Z,10.40
2018-11-28T13:48:44.222Z,11.67
2018-11-28T13:51:12.351Z,10.30
2018-11-28T13:53:40.439Z,11.50
2018-11-28T13:58:36.846Z,10.33
2018-11-28T14:01:05.317Z,11.60
2018-11-28T14:03:33.572Z,10.07
2018-11-28T14:06:01.680Z,10.40
2018-11-28T14:08:29.895Z,8.97
2018-11-28T14:10:58.076Z,12.33
2018-11-28T14:13:26.208Z,11.53
2018-11-28T14:15:54.375Z,12.27
2018-11-28T14:19:25.639Z,9.97
2018-11-28T14:21:53.743Z,11.37
2018-11-28T14:24:23.259Z,10.67
2018-11-28T14:26:51.414Z,10.90
2018-11-28T14:29:19.644Z,10.90
2018-11-28T14:31:47.781Z,10.90
2018-11-28T14:34:16.029Z,10.03
2018-11-28T14:36:44.172Z,10.30
2018-11-28T14:39:12.384Z,11.67
2018-11-28T14:41:40.530Z,10.03
2018-11-28T14:44:08.669Z,10.37
2018-11-28T14:46:36.801Z,9.13
2018-11-28T14:49:04.967Z,12.87
2018-11-28T14:51:33.226Z,11.23
2018-11-28T14:54:02.372Z,8.97
2018-11-28T14:56:30.463Z,9.87
2018-11-28T14:58:58.591Z,10.20
2018-11-28T15:01:26.713Z,10.03
2018-11-28T15:03:55.414Z,10.50
2018-11-28T15:06:29.723Z,11.60
2018-11-28T15:08:57.872Z,10.17
2018-11-28T15:11:25.940Z,10.80
2018-11-28T15:13:54.225Z,12.70
2018-11-28T15:16:22.306Z,9.00
2018-11-28T15:18:50.538Z,12.20
2018-11-28T15:21:18.680Z,12.40
2018-11-28T15:23:46.866Z,10.30
2018-11-28T15:26:15.141Z,10.30
2018-11-28T15:28:43.421Z,13.30
2018-11-28T15:31:11.765Z,11.80
2018-11-28T15:33:39.860Z,10.47
2018-11-28T15:36:08.056Z,10.97
2018-11-28T15:38:36.589Z,11.27
2018-11-28T15:41:05.351Z,14.70
2018-11-28T15:43:33.646Z,11.93
2018-11-28T15:46:02.042Z,13.87
2018-11-28T15:48:30.215Z,11.57
2018-11-28T15:50:58.373Z,13.57
2018-11-28T15:53:26.651Z,13.13
2018-11-28T15:55:54.953Z,13.90
2018-11-28T15:58:23.094Z,11.73
2018-11-28T16:00:51.305Z,14.87
2018-11-28T16:03:19.499Z,14.07
2018-11-28T16:05:47.810Z,13.17
2018-11-28T16:08:15.895Z,10.60
2018-11-28T16:10:44.113Z,12.40
2018-11-28T16:13:15.013Z,13.87
2018-11-28T16:15:49.839Z,10.87
2018-11-28T16:18:18.055Z,13.57
2018-11-28T16:20:47.072Z,13.03
2018-11-28T16:23:15.371Z,13.87
2018-11-28T16:25:43.499Z,15.47
2018-11-28T16:28:12.545Z,14.63
2018-11-28T16:30:39.938Z,14.90
2018-11-28T16:33:08.247Z,11.33
2018-11-28T16:35:37.152Z,13.87
2018-11-28T16:38:05.994Z,14.70
2018-11-28T16:40:34.180Z,12.70
2018-11-28T16:43:02.392Z,13.77
2018-11-28T16:45:30.559Z,14.50
2018-11-28T16:47:58.716Z,15.50
2018-11-28T16:50:27.117Z,14.53
2018-11-28T16:52:55.386Z,18.00
2018-11-28T16:55:23.536Z,18.27
2018-11-28T16:57:52.843Z,15.50
2018-11-28T17:00:23.490Z,14.80
2018-11-28T17:02:52.685Z,15.87
2018-11-28T17:05:21.815Z,17.57
2018-11-28T17:07:50.469Z,16.23
2018-11-28T17:10:23.778Z,18.07
2018-11-28T17:12:52.507Z,20.60
2018-11-28T17:15:20.707Z,16.67
2018-11-28T17:17:48.906Z,14.93
2018-11-28T17:20:18.991Z,16.37
2018-11-28T17:22:47.908Z,14.73
2018-11-28T17:25:19.327Z,16.97
2018-11-28T17:27:47.464Z,19.23
2018-11-28T17:30:19.066Z,19.60
2018-11-28T17:35:10.224Z,18.93
2018-11-28T17:37:38.609Z,18.23
2018-11-28T17:40:09.930Z,16.73
2018-11-28T17:42:38.159Z,17.83
2018-11-28T17:45:09.966Z,16.97
2018-11-28T17:47:38.143Z,17.03
2018-11-28T17:50:11.337Z,17.67
2018-11-28T17:52:39.552Z,15.53
2018-11-28T17:55:10.325Z,15.33
2018-11-28T17:57:38.450Z,17.57
2018-11-28T18:00:10.576Z,17.17
2018-11-28T18:02:38.728Z,17.20
2018-11-28T18:05:08.185Z,17.00
2018-11-28T18:07:36.462Z,15.63
2018-11-28T18:10:08.989Z,15.17
2018-11-28T18:12:37.302Z,15.00
2018-11-28T18:15:07.495Z,18.40
2018-11-28T18:17:35.846Z,14.47
2018-11-28T18:20:04.230Z,18.40
2018-11-28T18:22:32.410Z,17.47
2018-11-28T18:25:00.528Z,14.70
2018-11-28T18:27:28.671Z,15.20
2018-11-28T18:29:56.907Z,18.37
2018-11-28T18:32:25.363Z,14.17
2018-11-28T18:34:53.689Z,13.33
2018-11-28T18:37:24.258Z,13.40
2018-11-28T18:39:50.125Z,18.40
2018-11-28T18:42:18.255Z,16.00
2018-11-28T18:44:46.773Z,14.40
2018-11-28T18:47:14.957Z,16.97
2018-11-28T18:49:43.224Z,13.83
2018-11-28T18:52:11.468Z,12.43
2018-11-28T18:54:39.643Z,12.83
2018-11-28T18:57:07.805Z,17.10
2018-11-28T18:59:36.063Z,12.43
2018-11-28T19:02:04.579Z,15.57
2018-11-28T19:04:32.853Z,14.60
2018-11-28T19:07:01.064Z,13.03
2018-11-28T19:09:29.450Z,16.10
2018-11-28T19:11:57.573Z,11.40
2018-11-28T19:14:26.047Z,14.63
2018-11-28T19:16:54.475Z,14.23
2018-11-28T19:19:22.646Z,16.37
2018-11-28T19:21:50.734Z,12.90
2018-11-28T19:24:18.957Z,15.23
2018-11-28T19:26:47.106Z,11.67
2018-11-28T19:29:15.318Z,10.67
2018-11-28T19:31:43.678Z,14.87
2018-11-28T19:34:18.055Z,15.63
2018-11-28T19:36:40.348Z,12.97
2018-11-28T19:39:09.333Z,11.90
2018-11-28T19:41:37.792Z,14.10
2018-11-28T19:46:40.933Z,13.37
2018-11-28T19:49:09.874Z,12.87
2018-11-28T19:51:38.105Z,16.27
2018-11-28T19:54:06.332Z,10.70
2018-11-28T19:56:38.563Z,14.50
2018-11-28T19:59:06.694Z,14.13
2018-11-28T20:01:34.977Z,13.67
2018-11-28T20:04:03.207Z,16.70
2018-11-28T20:06:31.352Z,15.80
2018-11-28T20:08:59.521Z,14.63
2018-11-28T20:11:27.639Z,13.83
2018-11-28T20:13:55.926Z,12.80
2018-11-28T20:16:24.061Z,10.60
2018-11-28T20:18:52.314Z,13.27
2018-11-28T20:21:20.475Z,11.53
2018-11-28T20:23:48.628Z,14.37
2018-11-28T20:26:16.918Z,10.73
2018-11-28T20:28:45.111Z,11.93
2018-11-28T20:31:13.239Z,12.83
2018-11-28T20:33:41.385Z,13.60
2018-11-28T20:36:09.580Z,14.53
2018-11-28T20:38:37.709Z,13.93
2018-11-28T20:41:06.005Z,12.30
2018-11-28T20:43:34.333Z,10.57
2018-11-28T20:46:02.562Z,13.80
2018-11-28T20:48:30.746Z,10.60
2018-11-28T20:50:59.428Z,10.03
2018-11-28T20:53:27.646Z,13.57
2018-11-28T20:55:55.865Z,12.97
2018-11-28T20:58:24.055Z,12.67
2018-11-28T21:00:52.250Z,12.73
2018-11-28T21:03:20.526Z,13.03
2018-11-28T21:05:48.695Z,12.43
2018-11-28T21:08:16.880Z,11.17
2018-11-28T21:10:45.005Z,10.73
2018-11-28T21:13:13.605Z,12.43
2018-11-28T21:15:43.135Z,10.73
2018-11-28T21:18:11.290Z,11.50
2018-11-28T21:20:40.764Z,11.27
2018-11-28T21:23:11.495Z,9.30
2018-11-28T21:25:39.650Z,10.43
2018-11-28T21:28:07.965Z,9.43
2018-11-28T21:30:36.756Z,11.30
2018-11-28T21:33:06.056Z,11.33
2018-11-28T21:35:35.689Z,9.47
2018-11-28T21:38:04.145Z,9.30
2018-11-28T21:40:32.718Z,10.17
2018-11-28T21:43:01.058Z,11.03
2018-11-28T21:45:29.215Z,12.03
2018-11-28T21:47:57.335Z,9.17
2018-11-28T21:50:25.525Z,11.30
2018-11-28T21:52:53.636Z,8.30
2018-11-28T21:55:23.521Z,10.23
2018-11-28T21:57:51.705Z,9.60
2018-11-28T22:00:23.048Z,9.67
2018-11-28T22:02:51.255Z,9.60
2018-11-28T22:05:19.392Z,9.57
2018-11-28T22:07:47.556Z,10.77
2018-11-28T22:10:18.487Z,10.90
2018-11-28T22:12:46.773Z,10.03
2018-11-28T22:15:15.759Z,9.83
2018-11-28T22:18:02.378Z,8.40
2018-11-28T22:20:30.714Z,8.20
2018-11-28T22:22:59.004Z,10.00
2018-11-28T22:25:27.233Z,6.63
2018-11-28T22:27:55.673Z,9.27
2018-11-28T22:30:27.021Z,10.33
2018-11-28T22:32:55.279Z,9.27
2018-11-28T22:35:23.416Z,8.00
2018-11-28T22:37:51.573Z,9.70
2018-11-28T22:40:22.602Z,9.03
2018-11-28T22:42:50.715Z,6.67
2018-11-28T22:45:20.244Z,8.47
2018-11-28T22:47:48.404Z,8.53
2018-11-28T22:50:16.603Z,7.40
2018-11-28T22:52:44.737Z,6.97
2018-11-28T22:55:14.175Z,9.30
2018-11-28T22:57:42.331Z,7.83
2018-11-28T23:00:17.518Z,6.87
2018-11-28T23:03:17.440Z,7.53
2018-11-28T23:05:47.906Z,8.90
2018-11-28T23:08:17.640Z,8.13
2018-11-28T23:10:46.199Z,6.63
2018-11-28T23:13:17.743Z,7.03
2018-11-28T23:15:46.083Z,6.83
2018-11-28T23:18:14.233Z,8.20
2018-11-28T23:20:42.904Z,7.20
2018-11-28T23:23:12.669Z,8.50
2018-11-28T23:25:40.821Z,7.27
2018-11-28T23:28:08.996Z,9.20
2018-11-28T23:30:37.813Z,7.53
2018-11-28T23:33:08.333Z,6.57
2018-11-28T23:35:35.601Z,6.90
2018-11-28T23:38:04.114Z,8.27
2018-11-28T23:40:32.247Z,7.73
2018-11-28T23:43:00.397Z,6.07
2018-11-28T23:45:28.610Z,7.07
2018-11-28T23:47:56.720Z,6.97
2018-11-28T23:50:25.302Z,6.97
2018-11-28T23:52:54.369Z,7.93
2018-11-28T23:55:24.490Z,6.37
2018-11-28T23:57:52.706Z,6.83
